sensor_id;sensor_type;location;lat;lon;timestamp;P1;durP1;ratioP1;P2;durP2;ratioP2
69053;SDS011;56125;52.242;4.756;2023-02-13T00:01:53;6.03;;;4.07;;
69053;SDS011;56125;52.242;4.756;2023-02-13T00:06:54;8.10;;;4.40;;
69053;SDS011;56125;52.242;4.756;2023-02-13T00:11:55;6.40;;;4.17;;
69053;SDS011;56125;52.242;4.756;2023-02-13T00:16:56;5.82;;;4.45;;
69053;SDS011;56125;52.242;4.756;2023-02-13T00:21:57;6.77;;;4.23;;
69053;SDS011;56125;52.242;4.756;2023-02-13T00:26:58;5.22;;;3.80;;
69053;SDS011;56125;52.242;4.756;2023-02-13T00:31:59;6.30;;;4.20;;
69053;SDS011;56125;52.242;4.756;2023-02-13T00:37:00;7.30;;;4.03;;
69053;SDS011;56125;52.242;4.756;2023-02-13T00:42:01;6.90;;;4.20;;
69053;SDS011;56125;52.242;4.756;2023-02-13T00:47:03;5.60;;;3.88;;
69053;SDS011;56125;52.242;4.756;2023-02-13T00:52:04;7.17;;;3.90;;
69053;SDS011;56125;52.242;4.756;2023-02-13T00:57:05;6.20;;;4.25;;
69053;SDS011;56125;52.242;4.756;2023-02-13T01:02:06;6.43;;;4.03;;
69053;SDS011;56125;52.242;4.756;2023-02-13T01:07:07;8.38;;;4.60;;
69053;SDS011;56125;52.242;4.756;2023-02-13T01:12:08;6.13;;;4.47;;
69053;SDS011;56125;52.242;4.756;2023-02-13T01:17:09;6.57;;;4.20;;
69053;SDS011;56125;52.242;4.756;2023-02-13T01:22:10;6.87;;;4.07;;
69053;SDS011;56125;52.242;4.756;2023-02-13T01:27:11;7.38;;;4.63;;
69053;SDS011;56125;52.242;4.756;2023-02-13T01:32:12;6.07;;;3.90;;
69053;SDS011;56125;52.242;4.756;2023-02-13T01:37:13;6.85;;;4.10;;
69053;SDS011;56125;52.242;4.756;2023-02-13T01:42:15;7.30;;;4.00;;
69053;SDS011;56125;52.242;4.756;2023-02-13T01:47:41;6.53;;;4.25;;
69053;SDS011;56125;52.242;4.756;2023-02-13T01:52:54;5.90;;;4.40;;
69053;SDS011;56125;52.242;4.756;2023-02-13T01:58:23;7.10;;;4.53;;
69053;SDS011;56125;52.242;4.756;2023-02-13T02:03:31;7.40;;;4.57;;
69053;SDS011;56125;52.242;4.756;2023-02-13T02:08:40;7.30;;;4.22;;
69053;SDS011;56125;52.242;4.756;2023-02-13T02:13:42;5.63;;;4.00;;
69053;SDS011;56125;52.242;4.756;2023-02-13T02:18:44;6.03;;;4.30;;
69053;SDS011;56125;52.242;4.756;2023-02-13T02:29:12;7.63;;;4.38;;
69053;SDS011;56125;52.242;4.756;2023-02-13T02:39:55;6.97;;;4.32;;
69053;SDS011;56125;52.242;4.756;2023-02-13T02:50:34;6.95;;;4.00;;
69053;SDS011;56125;52.242;4.756;2023-02-13T02:55:42;7.10;;;4.57;;
69053;SDS011;56125;52.242;4.756;2023-02-13T03:01:03;6.38;;;4.10;;
69053;SDS011;56125;52.242;4.756;2023-02-13T03:06:27;6.77;;;4.23;;
69053;SDS011;56125;52.242;4.756;2023-02-13T03:11:36;6.32;;;3.97;;
69053;SDS011;56125;52.242;4.756;2023-02-13T03:16:57;7.87;;;4.10;;
69053;SDS011;56125;52.242;4.756;2023-02-13T03:22:33;5.82;;;4.20;;
69053;SDS011;56125;52.242;4.756;2023-02-13T03:27:44;6.67;;;4.23;;
69053;SDS011;56125;52.242;4.756;2023-02-13T03:38:54;7.67;;;4.90;;
69053;SDS011;56125;52.242;4.756;2023-02-13T03:49:30;6.30;;;4.23;;
69053;SDS011;56125;52.242;4.756;2023-02-13T03:55:05;6.75;;;4.53;;
69053;SDS011;56125;52.242;4.756;2023-02-13T04:00:31;5.97;;;3.90;;
69053;SDS011;56125;52.242;4.756;2023-02-13T04:05:42;7.13;;;4.35;;
69053;SDS011;56125;52.242;4.756;2023-02-13T04:10:51;8.07;;;4.97;;
69053;SDS011;56125;52.242;4.756;2023-02-13T04:16:00;7.80;;;4.55;;
69053;SDS011;56125;52.242;4.756;2023-02-13T04:21:07;7.57;;;4.50;;
69053;SDS011;56125;52.242;4.756;2023-02-13T04:26:11;7.45;;;4.38;;
69053;SDS011;56125;52.242;4.756;2023-02-13T04:31:17;7.53;;;4.67;;
69053;SDS011;56125;52.242;4.756;2023-02-13T04:36:18;7.82;;;4.75;;
69053;SDS011;56125;52.242;4.756;2023-02-13T04:41:19;7.63;;;4.40;;
69053;SDS011;56125;52.242;4.756;2023-02-13T04:46:20;5.78;;;4.32;;
69053;SDS011;56125;52.242;4.756;2023-02-13T04:51:21;8.07;;;4.60;;
69053;SDS011;56125;52.242;4.756;2023-02-13T04:56:22;6.18;;;3.92;;
69053;SDS011;56125;52.242;4.756;2023-02-13T05:01:23;6.57;;;4.30;;
69053;SDS011;56125;52.242;4.756;2023-02-13T05:06:24;7.25;;;4.18;;
69053;SDS011;56125;52.242;4.756;2023-02-13T05:11:25;8.43;;;4.40;;
69053;SDS011;56125;52.242;4.756;2023-02-13T05:16:26;7.45;;;4.30;;
69053;SDS011;56125;52.242;4.756;2023-02-13T05:21:27;7.43;;;4.27;;
69053;SDS011;56125;52.242;4.756;2023-02-13T05:26:47;7.38;;;4.35;;
69053;SDS011;56125;52.242;4.756;2023-02-13T05:31:49;5.03;;;3.70;;
69053;SDS011;56125;52.242;4.756;2023-02-13T05:36:54;5.28;;;3.63;;
69053;SDS011;56125;52.242;4.756;2023-02-13T05:41:55;5.77;;;3.87;;
69053;SDS011;56125;52.242;4.756;2023-02-13T05:46:56;6.70;;;4.20;;
69053;SDS011;56125;52.242;4.756;2023-02-13T05:51:57;5.13;;;3.40;;
69053;SDS011;56125;52.242;4.756;2023-02-13T05:56:58;7.63;;;4.05;;
69053;SDS011;56125;52.242;4.756;2023-02-13T06:01:59;6.60;;;3.97;;
69053;SDS011;56125;52.242;4.756;2023-02-13T06:07:00;7.18;;;3.83;;
69053;SDS011;56125;52.242;4.756;2023-02-13T06:12:02;5.10;;;3.33;;
69053;SDS011;56125;52.242;4.756;2023-02-13T06:17:03;6.32;;;3.55;;
69053;SDS011;56125;52.242;4.756;2023-02-13T06:22:04;5.40;;;3.60;;
69053;SDS011;56125;52.242;4.756;2023-02-13T06:27:05;5.90;;;3.60;;
69053;SDS011;56125;52.242;4.756;2023-02-13T06:32:06;6.17;;;3.80;;
69053;SDS011;56125;52.242;4.756;2023-02-13T06:37:07;6.68;;;3.08;;
69053;SDS011;56125;52.242;4.756;2023-02-13T06:42:08;8.77;;;4.00;;
69053;SDS011;56125;52.242;4.756;2023-02-13T06:47:09;7.90;;;3.72;;
69053;SDS011;56125;52.242;4.756;2023-02-13T06:52:10;8.13;;;3.87;;
69053;SDS011;56125;52.242;4.756;2023-02-13T06:57:11;8.02;;;3.65;;
69053;SDS011;56125;52.242;4.756;2023-02-13T07:02:12;5.90;;;3.70;;
69053;SDS011;56125;52.242;4.756;2023-02-13T07:07:13;7.43;;;4.10;;
69053;SDS011;56125;52.242;4.756;2023-02-13T07:12:14;7.97;;;3.73;;
69053;SDS011;56125;52.242;4.756;2023-02-13T07:17:15;10.90;;;4.38;;
69053;SDS011;56125;52.242;4.756;2023-02-13T07:22:16;8.30;;;3.87;;
69053;SDS011;56125;52.242;4.756;2023-02-13T07:27:17;10.80;;;3.90;;
69053;SDS011;56125;52.242;4.756;2023-02-13T07:32:18;7.10;;;3.97;;
69053;SDS011;56125;52.242;4.756;2023-02-13T07:37:19;6.57;;;3.55;;
69053;SDS011;56125;52.242;4.756;2023-02-13T07:42:20;7.80;;;4.13;;
69053;SDS011;56125;52.242;4.756;2023-02-13T07:47:21;8.27;;;3.28;;
69053;SDS011;56125;52.242;4.756;2023-02-13T07:52:22;7.53;;;3.97;;
69053;SDS011;56125;52.242;4.756;2023-02-13T07:57:23;7.70;;;3.90;;
69053;SDS011;56125;52.242;4.756;2023-02-13T08:02:24;10.33;;;4.00;;
69053;SDS011;56125;52.242;4.756;2023-02-13T08:07:25;8.13;;;4.07;;
69053;SDS011;56125;52.242;4.756;2023-02-13T08:12:26;9.57;;;4.10;;
69053;SDS011;56125;52.242;4.756;2023-02-13T08:17:27;9.00;;;3.65;;
69053;SDS011;56125;52.242;4.756;2023-02-13T08:22:28;11.10;;;4.37;;
69053;SDS011;56125;52.242;4.756;2023-02-13T08:27:29;6.78;;;3.80;;
69053;SDS011;56125;52.242;4.756;2023-02-13T08:32:30;8.57;;;4.33;;
69053;SDS011;56125;52.242;4.756;2023-02-13T08:37:31;8.02;;;4.22;;
69053;SDS011;56125;52.242;4.756;2023-02-13T08:42:33;9.77;;;4.67;;
69053;SDS011;56125;52.242;4.756;2023-02-13T08:47:34;9.70;;;4.55;;
69053;SDS011;56125;52.242;4.756;2023-02-13T08:52:35;8.67;;;4.30;;
69053;SDS011;56125;52.242;4.756;2023-02-13T08:57:36;10.77;;;4.63;;
69053;SDS011;56125;52.242;4.756;2023-02-13T09:02:37;11.70;;;4.73;;
69053;SDS011;56125;52.242;4.756;2023-02-13T09:07:38;8.00;;;4.10;;
69053;SDS011;56125;52.242;4.756;2023-02-13T09:12:39;8.07;;;4.40;;
69053;SDS011;56125;52.242;4.756;2023-02-13T09:17:40;8.75;;;4.60;;
69053;SDS011;56125;52.242;4.756;2023-02-13T09:22:41;8.50;;;4.57;;
69053;SDS011;56125;52.242;4.756;2023-02-13T09:27:42;9.27;;;4.32;;
69053;SDS011;56125;52.242;4.756;2023-02-13T09:32:43;9.27;;;4.27;;
69053;SDS011;56125;52.242;4.756;2023-02-13T09:37:44;8.63;;;3.75;;
69053;SDS011;56125;52.242;4.756;2023-02-13T09:42:45;8.73;;;4.67;;
69053;SDS011;56125;52.242;4.756;2023-02-13T09:47:48;8.43;;;3.58;;
69053;SDS011;56125;52.242;4.756;2023-02-13T09:52:50;9.20;;;4.10;;
69053;SDS011;56125;52.242;4.756;2023-02-13T09:57:58;7.78;;;4.53;;
69053;SDS011;56125;52.242;4.756;2023-02-13T10:14:23;6.93;;;4.40;;
69053;SDS011;56125;52.242;4.756;2023-02-13T10:19:41;8.80;;;4.00;;
69053;SDS011;56125;52.242;4.756;2023-02-13T10:24:50;6.20;;;3.97;;
69053;SDS011;56125;52.242;4.756;2023-02-13T10:35:14;6.50;;;4.03;;
69053;SDS011;56125;52.242;4.756;2023-02-13T10:40:38;6.85;;;3.97;;
69053;SDS011;56125;52.242;4.756;2023-02-13T10:45:48;6.17;;;3.67;;
69053;SDS011;56125;52.242;4.756;2023-02-13T10:50:59;6.00;;;3.50;;
69053;SDS011;56125;52.242;4.756;2023-02-13T11:01:46;8.13;;;3.78;;
69053;SDS011;56125;52.242;4.756;2023-02-13T11:06:59;7.70;;;3.97;;
69053;SDS011;56125;52.242;4.756;2023-02-13T11:17:27;5.80;;;3.57;;
69053;SDS011;56125;52.242;4.756;2023-02-13T11:22:32;6.10;;;3.45;;
69053;SDS011;56125;52.242;4.756;2023-02-13T11:27:38;5.67;;;3.63;;
69053;SDS011;56125;52.242;4.756;2023-02-13T11:32:40;5.03;;;3.42;;
69053;SDS011;56125;52.242;4.756;2023-02-13T11:37:41;7.07;;;3.43;;
69053;SDS011;56125;52.242;4.756;2023-02-13T11:42:42;7.47;;;3.40;;
69053;SDS011;56125;52.242;4.756;2023-02-13T11:47:45;4.47;;;3.10;;
69053;SDS011;56125;52.242;4.756;2023-02-13T11:52:54;4.45;;;3.03;;
69053;SDS011;56125;52.242;4.756;2023-02-13T11:58:23;6.60;;;3.50;;
69053;SDS011;56125;52.242;4.756;2023-02-13T12:03:27;5.00;;;3.13;;
69053;SDS011;56125;52.242;4.756;2023-02-13T12:08:30;5.10;;;3.30;;
69053;SDS011;56125;52.242;4.756;2023-02-13T12:13:34;5.72;;;3.30;;
69053;SDS011;56125;52.242;4.756;2023-02-13T12:18:42;7.70;;;3.73;;
69053;SDS011;56125;52.242;4.756;2023-02-13T12:24:02;6.07;;;3.55;;
69053;SDS011;56125;52.242;4.756;2023-02-13T12:34:28;6.18;;;3.17;;
69053;SDS011;56125;52.242;4.756;2023-02-13T12:39:52;4.93;;;3.33;;
69053;SDS011;56125;52.242;4.756;2023-02-13T12:56:19;7.50;;;3.75;;
69053;SDS011;56125;52.242;4.756;2023-02-13T13:07:07;6.35;;;3.00;;
69053;SDS011;56125;52.242;4.756;2023-02-13T13:12:32;7.33;;;2.90;;
69053;SDS011;56125;52.242;4.756;2023-02-13T13:17:54;6.88;;;3.00;;
69053;SDS011;56125;52.242;4.756;2023-02-13T13:28:28;5.18;;;2.60;;
69053;SDS011;56125;52.242;4.756;2023-02-13T13:33:38;6.13;;;2.97;;
69053;SDS011;56125;52.242;4.756;2023-02-13T13:44:03;3.37;;;2.30;;
69053;SDS011;56125;52.242;4.756;2023-02-13T13:55:00;6.87;;;2.60;;
69053;SDS011;56125;52.242;4.756;2023-02-13T14:20:42;4.28;;;2.67;;
69053;SDS011;56125;52.242;4.756;2023-02-13T14:26:09;4.17;;;2.80;;
69053;SDS011;56125;52.242;4.756;2023-02-13T14:36:29;6.57;;;2.87;;
69053;SDS011;56125;52.242;4.756;2023-02-13T14:41:41;3.78;;;2.47;;
69053;SDS011;56125;52.242;4.756;2023-02-13T14:46:43;4.43;;;2.90;;
69053;SDS011;56125;52.242;4.756;2023-02-13T14:51:56;4.50;;;2.60;;
69053;SDS011;56125;52.242;4.756;2023-02-13T15:02:23;3.22;;;2.45;;
69053;SDS011;56125;52.242;4.756;2023-02-13T15:07:25;5.13;;;3.03;;
69053;SDS011;56125;52.242;4.756;2023-02-13T15:12:34;4.53;;;2.40;;
69053;SDS011;56125;52.242;4.756;2023-02-13T15:17:36;4.70;;;2.90;;
69053;SDS011;56125;52.242;4.756;2023-02-13T15:22:40;5.28;;;3.20;;
69053;SDS011;56125;52.242;4.756;2023-02-13T15:27:45;4.17;;;2.70;;
69053;SDS011;56125;52.242;4.756;2023-02-13T15:32:54;4.25;;;2.60;;
69053;SDS011;56125;52.242;4.756;2023-02-13T15:37:57;7.30;;;2.77;;
69053;SDS011;56125;52.242;4.756;2023-02-13T15:42:59;3.92;;;2.58;;
69053;SDS011;56125;52.242;4.756;2023-02-13T15:48:00;3.97;;;2.60;;
69053;SDS011;56125;52.242;4.756;2023-02-13T15:53:03;5.85;;;3.13;;
69053;SDS011;56125;52.242;4.756;2023-02-13T15:58:10;5.63;;;3.30;;
69053;SDS011;56125;52.242;4.756;2023-02-13T16:03:14;5.13;;;3.17;;
69053;SDS011;56125;52.242;4.756;2023-02-13T16:13:29;6.30;;;3.58;;
69053;SDS011;56125;52.242;4.756;2023-02-13T16:18:30;8.17;;;3.70;;
69053;SDS011;56125;52.242;4.756;2023-02-13T16:23:31;9.30;;;4.25;;
69053;SDS011;56125;52.242;4.756;2023-02-13T16:28:32;5.13;;;3.27;;
69053;SDS011;56125;52.242;4.756;2023-02-13T16:33:39;4.97;;;3.17;;
69053;SDS011;56125;52.242;4.756;2023-02-13T16:38:48;6.27;;;3.70;;
69053;SDS011;56125;52.242;4.756;2023-02-13T16:43:53;5.15;;;2.90;;
69053;SDS011;56125;52.242;4.756;2023-02-13T16:53:59;5.07;;;3.10;;
69053;SDS011;56125;52.242;4.756;2023-02-13T17:04:29;6.43;;;2.88;;
69053;SDS011;56125;52.242;4.756;2023-02-13T17:09:30;5.80;;;3.20;;
69053;SDS011;56125;52.242;4.756;2023-02-13T17:14:31;5.07;;;2.67;;
69053;SDS011;56125;52.242;4.756;2023-02-13T17:19:32;6.63;;;2.83;;
69053;SDS011;56125;52.242;4.756;2023-02-13T17:24:33;4.32;;;2.63;;
69053;SDS011;56125;52.242;4.756;2023-02-13T17:29:34;4.50;;;3.00;;
69053;SDS011;56125;52.242;4.756;2023-02-13T17:34:35;6.20;;;3.30;;
69053;SDS011;56125;52.242;4.756;2023-02-13T17:39:36;5.57;;;3.10;;
69053;SDS011;56125;52.242;4.756;2023-02-13T17:44:38;5.25;;;3.35;;
69053;SDS011;56125;52.242;4.756;2023-02-13T17:49:39;4.97;;;3.00;;
69053;SDS011;56125;52.242;4.756;2023-02-13T17:54:40;5.45;;;2.90;;
69053;SDS011;56125;52.242;4.756;2023-02-13T17:59:41;4.40;;;2.97;;
69053;SDS011;56125;52.242;4.756;2023-02-13T18:04:42;3.60;;;2.30;;
69053;SDS011;56125;52.242;4.756;2023-02-13T18:09:44;4.33;;;2.30;;
69053;SDS011;56125;52.242;4.756;2023-02-13T18:14:46;4.68;;;2.80;;
69053;SDS011;56125;52.242;4.756;2023-02-13T18:19:47;5.83;;;3.13;;
69053;SDS011;56125;52.242;4.756;2023-02-13T18:24:49;4.50;;;3.08;;
69053;SDS011;56125;52.242;4.756;2023-02-13T18:29:50;4.43;;;3.00;;
69053;SDS011;56125;52.242;4.756;2023-02-13T18:34:52;4.05;;;2.63;;
69053;SDS011;56125;52.242;4.756;2023-02-13T18:39:54;3.90;;;2.67;;
69053;SDS011;56125;52.242;4.756;2023-02-13T18:44:56;6.13;;;2.78;;
69053;SDS011;56125;52.242;4.756;2023-02-13T18:49:57;3.90;;;2.60;;
69053;SDS011;56125;52.242;4.756;2023-02-13T18:54:58;4.22;;;2.97;;
69053;SDS011;56125;52.242;4.756;2023-02-13T18:59:59;5.07;;;2.83;;
69053;SDS011;56125;52.242;4.756;2023-02-13T19:05:00;5.28;;;3.10;;
69053;SDS011;56125;52.242;4.756;2023-02-13T19:10:01;6.10;;;3.10;;
69053;SDS011;56125;52.242;4.756;2023-02-13T19:15:02;5.82;;;3.40;;
69053;SDS011;56125;52.242;4.756;2023-02-13T19:20:04;4.00;;;3.17;;
69053;SDS011;56125;52.242;4.756;2023-02-13T19:25:06;5.13;;;3.15;;
69053;SDS011;56125;52.242;4.756;2023-02-13T19:30:07;5.97;;;3.70;;
69053;SDS011;56125;52.242;4.756;2023-02-13T19:35:09;6.95;;;4.28;;
69053;SDS011;56125;52.242;4.756;2023-02-13T19:40:11;6.50;;;3.10;;
69053;SDS011;56125;52.242;4.756;2023-02-13T19:45:13;6.43;;;3.58;;
69053;SDS011;56125;52.242;4.756;2023-02-13T19:50:14;8.20;;;3.73;;
69053;SDS011;56125;52.242;4.756;2023-02-13T19:55:17;7.43;;;4.38;;
69053;SDS011;56125;52.242;4.756;2023-02-13T20:00:19;6.63;;;4.43;;
69053;SDS011;56125;52.242;4.756;2023-02-13T20:05:21;6.70;;;3.92;;
69053;SDS011;56125;52.242;4.756;2023-02-13T20:10:22;9.17;;;4.17;;
69053;SDS011;56125;52.242;4.756;2023-02-13T20:15:23;8.00;;;4.63;;
69053;SDS011;56125;52.242;4.756;2023-02-13T20:20:24;8.67;;;5.10;;
69053;SDS011;56125;52.242;4.756;2023-02-13T20:25:27;8.77;;;4.72;;
69053;SDS011;56125;52.242;4.756;2023-02-13T20:30:31;7.73;;;4.87;;
69053;SDS011;56125;52.242;4.756;2023-02-13T20:35:32;7.75;;;4.80;;
69053;SDS011;56125;52.242;4.756;2023-02-13T20:40:33;8.20;;;4.60;;
69053;SDS011;56125;52.242;4.756;2023-02-13T20:45:34;8.93;;;5.20;;
69053;SDS011;56125;52.242;4.756;2023-02-13T20:50:35;7.23;;;4.47;;
69053;SDS011;56125;52.242;4.756;2023-02-13T20:55:36;8.23;;;4.53;;
69053;SDS011;56125;52.242;4.756;2023-02-13T21:00:37;9.40;;;4.90;;
69053;SDS011;56125;52.242;4.756;2023-02-13T21:05:39;10.63;;;4.70;;
69053;SDS011;56125;52.242;4.756;2023-02-13T21:10:40;7.03;;;4.50;;
69053;SDS011;56125;52.242;4.756;2023-02-13T21:15:41;7.00;;;4.03;;
69053;SDS011;56125;52.242;4.756;2023-02-13T21:20:44;7.33;;;4.43;;
69053;SDS011;56125;52.242;4.756;2023-02-13T21:25:45;8.50;;;4.78;;
69053;SDS011;56125;52.242;4.756;2023-02-13T21:30:46;6.87;;;4.03;;
69053;SDS011;56125;52.242;4.756;2023-02-13T21:35:47;6.05;;;4.30;;
69053;SDS011;56125;52.242;4.756;2023-02-13T21:40:48;7.47;;;3.90;;
69053;SDS011;56125;52.242;4.756;2023-02-13T21:45:49;7.13;;;4.10;;
69053;SDS011;56125;52.242;4.756;2023-02-13T21:50:50;5.23;;;3.40;;
69053;SDS011;56125;52.242;4.756;2023-02-13T21:55:51;7.38;;;3.95;;
69053;SDS011;56125;52.242;4.756;2023-02-13T22:00:52;6.10;;;3.93;;
69053;SDS011;56125;52.242;4.756;2023-02-13T22:05:54;5.40;;;3.22;;
69053;SDS011;56125;52.242;4.756;2023-02-13T22:10:56;6.10;;;3.70;;
69053;SDS011;56125;52.242;4.756;2023-02-13T22:15:59;6.35;;;3.92;;
69053;SDS011;56125;52.242;4.756;2023-02-13T22:21:04;6.03;;;3.73;;
69053;SDS011;56125;52.242;4.756;2023-02-13T22:26:05;6.45;;;3.65;;
69053;SDS011;56125;52.242;4.756;2023-02-13T22:31:07;5.87;;;4.00;;
69053;SDS011;56125;52.242;4.756;2023-02-13T22:36:09;6.90;;;3.95;;
69053;SDS011;56125;52.242;4.756;2023-02-13T22:41:14;7.10;;;3.63;;
69053;SDS011;56125;52.242;4.756;2023-02-13T22:46:21;5.20;;;3.90;;
69053;SDS011;56125;52.242;4.756;2023-02-13T22:51:25;5.93;;;3.90;;
69053;SDS011;56125;52.242;4.756;2023-02-13T22:56:29;7.00;;;3.17;;
69053;SDS011;56125;52.242;4.756;2023-02-13T23:01:30;5.60;;;3.63;;
69053;SDS011;56125;52.242;4.756;2023-02-13T23:06:31;5.22;;;3.53;;
69053;SDS011;56125;52.242;4.756;2023-02-13T23:11:32;5.33;;;3.83;;
69053;SDS011;56125;52.242;4.756;2023-02-13T23:16:52;5.95;;;3.50;;
69053;SDS011;56125;52.242;4.756;2023-02-13T23:22:12;5.60;;;3.60;;
69053;SDS011;56125;52.242;4.756;2023-02-13T23:27:13;5.95;;;4.10;;
69053;SDS011;56125;52.242;4.756;2023-02-13T23:32:15;5.27;;;3.93;;
69053;SDS011;56125;52.242;4.756;2023-02-13T23:37:16;5.03;;;3.38;;
69053;SDS011;56125;52.242;4.756;2023-02-13T23:42:17;5.13;;;3.67;;
69053;SDS011;56125;52.242;4.756;2023-02-13T23:47:18;6.05;;;3.83;;
69053;SDS011;56125;52.242;4.756;2023-02-13T23:52:19;4.17;;;3.27;;
69053;SDS011;56125;52.242;4.756;2023-02-13T23:57:20;4.60;;;3.40;;
